CTO weather

La CabaƱa Airport
Caloto, Cauca Department, Colombia

Public forecast

Using degrees Celsius for public forecast. Weather courtesy of forecast.io.

METAR (pilot weather report)

Closest report is Alfonso Bonilla Aragon International Airport, 30.0 nm (55.6 km) N. Retrieved 2019/08/20 03:00 UTC (7 minutes ago):

SKCL 200300Z 02008KT 9999 FEW030 BKN120 22/18 A3001 NOSIG

TAF (pilot weather forecast)

Forecast is more than 12 hours old.

Closest forecast is Alfonso Bonilla Aragon International Airport, 30.0 nm (55.6 km) N. Retrieved 2019/08/19 00:45 UTC (1 day ago):

TAF SKCL 192230Z 2000/2024 33010KT 9999 FEW020 BKN100 BECMG 2002/2004 VRB02KT TEMPO 2003/2006 5000 DZRA TEMPO 2009/2012 5000 BR TX32/2019Z TN18/2011Z